Ana Sayfa
METAR-TAF:

METAR-TAF

Havaalanları :

Llano Municipal Airport

Llano, Teksas, Amerika Birleşik Devletleri

Enlem: 30-47-01N, Boylam: 098-39-43W, yükseklik: 336 m

Güncel hava durumu gözlemi

Rapor saat 05:55 UTC de 27 dakika önce yapıldı.
Rüzgar güneydan 4 kt
Sıcaklık 28°C
Nem 51%
Basınç 1015 hPa
Görüş mesafesi: 16.1 km
4100 ft yükseklikte parçalı bulutlu
5000 ft yükseklikte parçalı bulutlu
6000 ft yükseklikte parçalı çok bulutlu

METAR: KAQO 160555Z AUTO 17004KT 10SM SCT041 SCT050 BKN060 28/17 A2996 RMK AO2

Saat: 01:22 (06:22 UTC)


TAF: eksik

4.000'den fazla havaalanı için hava durumu gözlemleri ve tahminleri (METAR ve TAF raporları).

Kullanılabilir istasyonlar harita üzerinde sarı ve kırmızı noktalarla gösterilir.

İstasyonun adını görmek için fareyi noktanın üzerinde gezdirin.

Sonrasında hava gözlem ve tahminlerini görmek için tıklayın.

Haritayı değiştirmek için: yaklaştırmak için siyah artı işaretli yeşil düğmeye ve uzaklaştırmak için de eksi işaretli düğmeye hızla tıklayın; bitişik haritalar için yeşil okları kullanın.


METAR-TAF: